Latest Weather Observations for Casterton

IDV60801

Issued at 9:35 pm EST Thursday 31 July 2014 (issued every 30 minutes, with the page automatically refreshed every 10 minutes)

About weather observations | Map of weather stations | Latest weather observations for VIC | Other Formats
Station Details ID: 090182 Name: CASTERTON Lat: -37.58 Lon: 141.33 Height: 130.6 m
Data from the previous 72 hours. | See also: Recent months at Casterton
Date/Time
EST
Temp
°C
App
Temp
°C
Dew
Point
Rel
Hum
%
Delta-T
°C
Wind Press
QNH
hPa
Press
MSL
hPa
Rain
since 9 am
mm
Dir
 
Spd
km/h
Gust
km/h
Spd
kts
Gust
kts
31/09:30pm 5.2 0.3 4.3 94 0.4 NW 19 28 10 15 1002.4 - 15.8
31/09:00pm 5.3 0.6 5.0 98 0.1 NW 19 28 10 15 1002.0 1002.3 15.8
31/08:30pm 5.1 1.4 4.7 97 0.2 WNW 13 19 7 10 1002.1 - 15.8
31/08:00pm 5.6 0.8 4.6 93 0.4 NW 19 24 10 13 1001.3 - 15.2
31/07:30pm 5.5 0.6 4.2 91 0.6 NW 19 24 10 13 1001.2 - 15.2
31/07:00pm 6.3 1.1 3.8 84 1.1 WNW 20 32 11 17 1001.0 - 15.2
31/06:30pm 6.1 -1.3 3.9 86 0.9 WNW 32 56 17 30 1000.7 - 15.2
31/06:13pm 6.3 -2.5 3.5 82 1.2 W 39 63 21 34 1001.0 - 15.0
31/06:11pm 6.8 -2.0 3.6 80 1.4 W 39 56 21 30 1001.1 - 15.0
31/06:04pm 7.1 0.3 3.3 77 1.6 WNW 28 46 15 25 1000.4 - 14.8
31/06:00pm 6.9 1.3 3.7 80 1.4 WNW 22 33 12 18 1000.1 1000.4 14.8
31/05:30pm 7.1 1.2 3.7 79 1.5 WNW 24 37 13 20 999.8 - 14.6
31/05:05pm 7.2 0.6 4.0 80 1.4 WNW 28 50 15 27 999.6 - 14.6
31/05:00pm 7.5 1.3 4.1 79 1.5 WNW 26 39 14 21 999.4 - 14.6
31/04:30pm 7.0 1.1 5.6 91 0.6 WNW 26 43 14 23 999.1 - 14.6
31/04:00pm 6.8 1.8 6.5 98 0.1 WNW 22 35 12 19 999.5 - 14.4
31/03:30pm 7.3 2.0 7.0 98 0.1 WNW 24 41 13 22 998.7 - 13.0
31/03:00pm 7.5 1.0 6.4 93 0.5 NW 30 43 16 23 998.2 998.4 12.4
31/02:30pm 7.2 0.1 6.3 94 0.4 WNW 33 56 18 30 998.3 - 12.2
31/02:08pm 7.0 0.9 6.7 98 0.1 W 28 48 15 26 998.4 - 12.2
31/02:00pm 7.4 1.8 7.1 98 0.1 W 26 39 14 21 998.3 - 12.0
31/01:30pm 7.4 1.0 7.1 98 0.1 W 30 48 16 26 997.7 - 11.0
31/01:10pm 7.4 1.4 7.1 98 0.1 W 28 57 15 31 998.1 - 10.4
31/01:00pm 7.7 2.5 7.4 98 0.1 W 24 41 13 22 998.0 - 9.8
31/12:33pm 7.8 1.5 7.5 98 0.1 W 30 48 16 26 997.8 - 7.6
31/12:30pm 7.7 1.0 7.4 98 0.1 W 32 48 17 26 998.0 - 7.6
31/12:00pm 8.1 0.9 7.8 98 0.1 WSW 35 57 19 31 997.4 997.6 7.0
31/11:38am 9.5 3.6 9.2 98 0.1 W 30 52 16 28 996.7 - 5.6
31/11:30am 9.6 4.5 9.3 98 0.1 W 26 41 14 22 996.6 - 5.2
31/11:00am 11.4 3.5 9.5 88 1.0 W 41 69 22 37 996.6 - 0.8
31/10:58am 12.8 5.6 10.5 86 1.2 WNW 39 69 21 37 996.0 - 0.2
31/10:30am 13.1 4.8 9.5 79 1.8 NNW 43 65 23 35 995.0 - 0.0
31/10:00am 13.1 4.7 9.5 79 1.8 NNW 44 76 24 41 995.6 - 0.0
31/09:30am 13.0 4.5 9.3 78 1.9 NNW 44 67 24 36 996.2 - 0.0
31/09:00am 12.8 4.4 8.9 77 2.0 NNW 43 76 23 41 996.7 996.9 3.8
31/08:54am 12.8 4.3 9.1 78 1.9 NNW 44 76 24 41 996.6 - 3.8
31/08:30am 12.6 5.0 9.2 80 1.7 NNW 39 57 21 31 997.4 - 3.8
31/08:00am 12.4 5.1 8.9 79 1.8 NNW 37 57 20 31 997.8 - 3.8
31/07:30am 12.2 4.9 8.7 79 1.8 NNW 37 56 20 30 998.1 - 3.8
31/07:07am 12.3 5.4 9.0 80 1.7 NNW 35 61 19 33 998.5 - 3.8
31/07:00am 12.3 5.4 8.8 79 1.8 NNW 35 50 19 27 998.8 - 3.8
31/06:37am 12.1 5.6 8.8 80 1.7 NNW 33 52 18 28 998.8 - 3.8
31/06:30am 12.2 5.3 8.9 80 1.7 NNW 35 50 19 27 999.1 - 3.8
31/06:06am 12.9 6.0 9.0 77 2.0 NNW 35 54 19 29 999.2 - 3.8
31/06:00am 13.0 5.8 9.1 77 2.0 NNW 37 50 20 27 999.3 999.5 3.8
31/05:30am 13.0 6.5 9.1 77 2.0 NNW 33 57 18 31 999.7 - 3.8
31/05:00am 13.0 6.2 9.1 77 2.0 NNW 35 59 19 32 1000.1 - 3.8
31/04:30am 13.1 6.7 9.2 77 2.0 NNW 33 52 18 28 1000.6 - 3.8
31/04:00am 13.4 6.2 9.1 75 2.2 NNW 37 57 20 31 1001.1 - 3.8
31/03:30am 13.5 6.6 9.0 74 2.3 NNW 35 56 19 30 1001.7 - 3.8
31/03:00am 13.5 6.7 9.2 75 2.2 NNW 35 61 19 33 1002.5 1002.8 3.8
31/02:30am 13.6 6.5 9.6 77 2.1 NNW 37 56 20 30 1002.7 - 3.8
31/02:00am 13.5 7.2 9.7 78 2.0 NNW 33 56 18 30 1003.3 - 3.8
31/01:41am 13.4 6.7 9.8 79 1.9 NNW 35 54 19 29 1003.4 - 3.8
31/01:30am 13.6 7.0 10.0 79 1.9 NNW 35 52 19 28 1003.8 - 3.8
31/01:00am 13.6 6.7 10.2 80 1.8 NNW 37 59 20 32 1004.4 - 3.8
31/12:30am 13.3 6.9 10.7 84 1.4 NNW 35 54 19 29 1004.9 - 3.8
31/12:24am 13.1 7.2 10.6 85 1.3 NNW 32 54 17 29 1005.0 - 3.8
31/12:00am 13.0 7.3 11.2 89 1.0 NNW 32 46 17 25 1005.6 1005.8 3.8
 
Date/Time
EST
Temp
°C
App
Temp
°C
Dew
Point
Rel
Hum
%
Delta-T
°C
Wind Press
QNH
hPa
Press
MSL
hPa
Rain
since 9 am
mm
Dir
 
Spd
km/h
Gust
km/h
Spd
kts
Gust
kts
30/11:30pm 13.0 7.4 11.4 90 0.9 NNW 32 48 17 26 1006.1 - 3.8
30/11:00pm 13.1 8.0 11.8 92 0.7 NNW 30 43 16 23 1006.7 - 3.8
30/10:30pm 12.6 7.6 12.3 98 0.2 NW 30 46 16 25 1007.3 - 3.8
30/10:10pm 12.3 7.6 12.0 98 0.2 NNW 28 48 15 26 1007.7 - 3.8
30/10:00pm 12.3 8.4 12.0 98 0.2 NW 24 39 13 21 1007.8 - 3.8
30/09:37pm 12.6 7.1 12.3 98 0.2 NW 33 52 18 28 1008.0 - 3.0
30/09:30pm 12.7 7.2 12.4 98 0.2 NW 33 44 18 24 1008.0 - 2.8
30/09:03pm 13.3 7.5 11.5 89 1.0 NNW 33 54 18 29 1008.1 - 2.6
30/09:00pm 13.2 7.6 11.6 90 0.9 NNW 32 46 17 25 1008.1 1008.4 2.6
30/08:30pm 13.0 7.2 11.6 91 0.7 NNW 33 56 18 30 1008.5 - 2.6
30/08:04pm 12.7 7.9 11.8 94 0.5 NW 28 46 15 25 1008.9 - 2.6
30/08:00pm 12.5 7.7 11.7 95 0.4 NW 28 39 15 21 1008.9 - 2.6
30/07:30pm 12.3 8.0 12.0 98 0.2 NW 26 41 14 22 1008.9 - 2.6
30/07:00pm 12.6 7.1 11.8 95 0.4 NW 32 43 17 23 1008.9 - 2.2
30/06:30pm 13.4 8.0 10.8 84 1.4 NW 30 43 16 23 1008.9 - 2.0
30/06:00pm 13.5 8.1 10.9 84 1.4 NW 30 44 16 24 1008.9 1009.2 2.0
30/05:30pm 13.5 9.7 11.0 85 1.3 NW 22 37 12 20 1008.9 - 2.0
30/05:00pm 13.8 8.5 11.3 85 1.3 NW 30 46 16 25 1008.9 - 2.0
30/04:30pm 13.5 8.5 12.2 92 0.7 NW 30 48 16 26 1009.1 - 2.0
30/04:11pm 13.9 8.1 11.6 86 1.2 NW 33 52 18 28 1009.1 - 2.0
30/04:00pm 14.1 8.5 12.0 87 1.1 NW 33 48 18 26 1009.0 - 2.0
30/03:30pm 14.1 9.7 12.8 92 0.7 NW 28 41 15 22 1009.1 - 2.0
30/03:00pm 14.1 10.0 12.7 91 0.8 NW 26 41 14 22 1009.4 1009.7 2.0
30/02:30pm 14.7 10.0 12.0 84 1.5 WNW 28 46 15 25 1009.4 - 2.0
30/02:27pm 14.5 9.7 11.6 83 1.6 NW 28 46 15 25 1009.4 - 2.0
30/02:00pm 14.1 10.0 13.8 98 0.2 NW 28 41 15 22 1009.8 - 2.0
30/01:30pm 13.6 8.9 13.3 98 0.2 WNW 30 44 16 24 1010.1 - 2.0
30/01:08pm 13.4 8.3 13.1 98 0.2 WNW 32 52 17 28 1010.6 - 1.8
30/01:00pm 14.4 10.3 13.9 97 0.3 NW 28 44 15 24 1010.1 - 0.8
30/12:42pm 14.6 9.8 14.1 97 0.3 NW 32 50 17 27 1010.4 - 0.8
30/12:30pm 14.7 10.4 14.4 98 0.2 NW 30 44 16 24 1010.6 - 0.8
30/12:00pm 13.9 10.1 13.6 98 0.2 NW 26 35 14 19 1011.3 1011.6 0.8
30/11:30am 13.8 9.6 13.5 98 0.2 WNW 28 37 15 20 1011.5 - 0.8
30/11:00am 13.1 8.3 12.9 99 0.1 NW 30 44 16 24 1012.0 - 0.8
30/10:30am 13.5 9.6 13.2 98 0.2 NW 26 37 14 20 1011.7 - 0.2
30/10:00am 13.1 9.1 12.9 99 0.1 NW 26 35 14 19 1012.0 - 0.2
30/09:30am 12.9 8.8 12.6 98 0.2 WNW 26 43 14 23 1012.0 - 0.0
30/09:00am 12.4 8.9 12.2 99 0.1 NW 22 32 12 17 1012.0 1012.3 2.4
30/08:30am 12.3 8.4 12.1 99 0.1 NW 24 33 13 18 1011.7 - 2.2
30/08:00am 12.0 7.6 11.7 98 0.2 NW 26 35 14 19 1011.6 - 2.2
30/07:30am 11.7 8.0 11.4 98 0.2 NW 22 33 12 18 1011.3 - 2.2
30/07:00am 11.7 7.2 11.4 98 0.2 NW 26 35 14 19 1011.4 - 2.2
30/06:30am 11.5 8.1 11.3 99 0.1 NW 20 32 11 17 1011.3 - 2.0
30/06:00am 11.9 8.3 11.7 99 0.1 NW 22 30 12 16 1011.3 1011.6 2.0
30/05:30am 12.0 8.8 11.8 99 0.1 NW 20 28 11 15 1011.2 - 2.0
30/05:00am 12.4 8.1 12.1 98 0.2 NW 26 35 14 19 1011.0 - 1.8
30/04:30am 12.0 8.7 11.7 98 0.2 NW 20 28 11 15 1011.0 - 1.8
30/04:00am 11.9 8.6 11.6 98 0.2 NW 20 28 11 15 1011.2 - 1.8
30/03:30am 11.9 8.6 11.6 98 0.2 NW 20 28 11 15 1011.5 - 1.8
30/03:00am 12.0 8.7 11.7 98 0.2 NW 20 28 11 15 1011.7 1012.0 1.8
30/02:30am 11.9 8.8 11.6 98 0.2 NW 19 24 10 13 1011.9 - 1.8
30/02:00am 12.2 9.0 11.9 98 0.2 WNW 20 30 11 16 1012.2 - 1.8
30/01:30am 12.4 9.4 12.1 98 0.2 WNW 19 32 10 17 1012.1 - 1.8
30/01:00am 12.5 8.6 12.2 98 0.2 WNW 24 41 13 22 1012.0 - 1.8
30/12:30am 12.6 8.8 12.3 98 0.2 WNW 24 33 13 18 1011.9 - 1.8
30/12:00am 12.7 8.5 12.4 98 0.2 WNW 26 39 14 21 1011.6 1011.9 1.8
 
Date/Time
EST
Temp
°C
App
Temp
°C
Dew
Point
Rel
Hum
%
Delta-T
°C
Wind Press
QNH
hPa
Press
MSL
hPa
Rain
since 9 am
mm
Dir
 
Spd
km/h
Gust
km/h
Spd
kts
Gust
kts
29/11:48pm 13.0 8.5 12.7 98 0.2 NW 28 56 15 30 1011.5 - 1.8
29/11:30pm 13.2 9.2 12.9 98 0.2 WNW 26 43 14 23 1011.6 - 1.8
29/11:00pm 13.3 9.2 12.8 97 0.3 WNW 26 35 14 19 1011.4 - 1.8
29/10:46pm 13.3 8.9 13.0 98 0.2 WNW 28 46 15 25 1011.3 - 1.8
29/10:30pm 13.2 9.9 12.9 98 0.2 WNW 22 37 12 20 1011.3 - 1.8
29/10:00pm 13.3 8.5 13.0 98 0.2 NW 30 44 16 24 1011.2 - 1.8
29/09:30pm 13.3 10.1 13.0 98 0.2 WNW 22 32 12 17 1010.9 - 1.8
29/09:00pm 13.1 9.4 12.8 98 0.2 WNW 24 37 13 20 1010.6 1010.9 1.8
29/08:36pm 12.9 8.4 12.6 98 0.2 WNW 28 46 15 25 1010.5 - 1.8
29/08:30pm 12.9 9.6 12.7 99 0.1 W 22 37 12 20 1010.6 - 1.8
29/08:00pm 13.0 8.1 12.7 98 0.2 NW 30 48 16 26 1010.3 - 1.2
29/07:56pm 13.0 8.1 12.7 98 0.2 NW 30 48 16 26 1010.1 - 1.2
29/07:30pm 12.9 8.0 12.6 98 0.2 WNW 30 46 16 25 1010.0 - 1.2
29/07:12pm 13.1 8.3 12.8 98 0.2 WNW 30 50 16 27 1009.9 - 1.2
29/07:00pm 13.0 8.9 12.7 98 0.2 NW 26 41 14 22 1009.6 - 1.2
29/06:30pm 13.2 8.4 12.9 98 0.2 WNW 30 48 16 26 1009.6 - 1.2
29/06:17pm 13.9 9.1 12.8 93 0.6 NW 30 50 16 27 1009.2 - 1.0
29/06:00pm 13.9 9.0 12.5 91 0.8 NW 30 41 16 22 1009.1 1009.4 1.0
29/05:49pm 13.9 9.4 12.5 91 0.8 NW 28 46 15 25 1009.0 - 1.0
29/05:30pm 14.0 9.1 12.4 90 0.9 WNW 30 44 16 24 1009.0 - 1.0
29/05:00pm 14.1 9.3 13.0 93 0.6 NW 30 46 16 25 1008.6 - 1.0
29/04:30pm 14.1 9.8 13.3 95 0.4 WNW 28 41 15 22 1008.6 - 1.0
29/04:00pm 14.4 10.5 13.3 93 0.6 WNW 26 37 14 20 1008.3 - 1.0
29/03:30pm 14.4 10.5 13.4 94 0.6 WNW 26 39 14 21 1008.0 - 1.0
29/03:00pm 14.8 9.6 12.7 87 1.2 WNW 32 50 17 27 1007.7 1008.0 1.0
29/02:30pm 14.7 9.0 12.9 89 1.0 WNW 35 56 19 30 1007.5 - 1.0
29/02:05pm 15.0 9.5 13.5 91 0.8 NW 35 54 19 29 1007.2 - 1.0
29/02:00pm 14.7 8.8 13.6 93 0.6 WNW 37 52 20 28 1007.3 - 1.0
29/01:32pm 14.2 8.7 13.6 96 0.3 WNW 35 56 19 30 1007.4 - 1.0
29/01:30pm 14.4 9.4 14.1 98 0.2 WNW 33 50 18 27 1007.4 - 1.0
29/01:00pm 13.3 6.5 13.0 98 0.2 WNW 41 67 22 36 1007.6 - 1.0
29/12:44pm 13.6 8.6 13.3 98 0.2 WNW 32 50 17 27 1007.7 - 0.6
29/12:30pm 14.6 8.7 13.6 94 0.6 WNW 37 52 20 28 1007.6 - 0.4
29/12:00pm 14.2 8.0 13.9 98 0.2 NW 39 78 21 42 1008.0 1008.3 0.4
29/11:51am 13.7 7.0 13.4 98 0.2 NW 41 78 22 42 1008.1 - 0.4
29/11:31am 13.7 7.4 13.4 98 0.2 NW 39 57 21 31 1007.9 - 0.2
29/11:30am 13.9 8.0 13.6 98 0.2 NW 37 54 20 29 1008.0 - 0.2
29/11:00am 14.0 8.9 13.7 98 0.2 NW 33 52 18 28 1008.4 - 0.2
29/10:58am 13.9 8.8 13.6 98 0.2 NW 33 52 18 28 1008.4 - 0.2
29/10:30am 13.5 8.8 13.2 98 0.2 NW 30 43 16 23 1008.4 - 0.2
29/10:17am 13.1 7.7 12.8 98 0.2 NW 33 52 18 28 1008.5 - 0.2
29/10:00am 12.9 7.4 12.6 98 0.2 NW 33 48 18 26 1008.1 - 0.2
29/09:30am 12.7 7.4 12.4 98 0.2 NW 32 50 17 27 1008.2 - 0.2
29/09:21am 12.5 7.5 12.3 99 0.1 NW 30 50 16 27 1008.1 - 0.2
29/09:00am 12.3 6.8 12.0 98 0.2 NW 32 46 17 25 1008.0 1008.3 0.8
29/08:40am 12.4 7.4 12.1 98 0.2 NW 30 48 16 26 1007.8 - 0.8
29/08:30am 12.3 6.8 12.0 98 0.2 NW 32 46 17 25 1007.8 - 0.8
29/08:00am 12.0 6.5 11.7 98 0.2 NNW 32 44 17 24 1007.8 - 0.6
29/07:30am 11.8 7.3 11.5 98 0.2 NW 26 35 14 19 1008.1 - 0.6
29/07:00am 11.5 6.2 11.2 98 0.2 NNW 30 41 16 22 1007.9 - 0.6
29/06:42am 11.5 6.2 11.2 98 0.2 NW 30 48 16 26 1007.9 - 0.6
29/06:30am 11.6 6.7 11.3 98 0.2 NW 28 41 15 22 1008.0 - 0.6
29/06:04am 11.7 6.1 11.4 98 0.2 NW 32 50 17 27 1007.7 - 0.4
29/06:00am 11.7 6.4 11.4 98 0.2 NW 30 43 16 23 1007.8 1008.1 0.4
29/05:30am 11.9 6.1 11.6 98 0.2 NNW 33 57 18 31 1007.3 - 0.2
29/05:07am 12.2 6.3 11.3 94 0.5 NW 33 52 18 28 1007.5 - 0.0
29/05:00am 12.3 5.6 11.0 92 0.7 NNW 37 52 20 28 1007.4 - 0.0
29/04:30am 12.3 6.0 11.0 92 0.7 NNW 35 54 19 29 1007.6 - 0.0
29/04:03am 12.4 6.5 11.1 92 0.7 NNW 33 56 18 30 1007.9 - 0.0
29/04:00am 12.4 6.5 11.0 91 0.7 NNW 33 50 18 27 1007.8 - 0.0
29/03:31am 12.3 6.9 10.9 91 0.7 NW 30 48 16 26 1008.0 - 0.0
29/03:30am 12.3 6.9 11.0 92 0.7 NW 30 41 16 22 1008.0 - 0.0
29/03:06am 12.3 6.3 10.9 91 0.7 NNW 33 56 18 30 1007.9 - 0.0
29/03:00am 12.3 6.4 11.0 92 0.7 NW 33 50 18 27 1008.3 1008.6 0.0
29/02:30am 12.5 6.2 11.1 91 0.7 NW 35 56 19 30 1008.6 - 0.0
29/02:00am 12.6 5.8 10.8 89 0.9 NW 37 57 20 31 1008.7 - 0.0
29/01:30am 12.6 6.8 10.8 89 0.9 NNW 32 54 17 29 1008.9 - 0.0
29/01:19am 12.6 6.6 10.8 89 0.9 NW 33 52 18 28 1009.1 - 0.0
29/01:00am 12.5 6.7 10.9 90 0.8 NNW 32 48 17 26 1009.2 - 0.0
29/12:30am 12.3 7.0 11.4 94 0.5 NW 30 50 16 27 1009.9 - 0.0
29/12:21am 12.3 7.0 11.4 94 0.5 NNW 30 50 16 27 1009.7 - 0.0
29/12:00am 12.1 7.3 11.8 98 0.2 NW 28 41 15 22 1010.1 1010.4 0.0
 
Date/Time
EST
Temp
°C
App
Temp
°C
Dew
Point
Rel
Hum
%
Delta-T
°C
Wind Press
QNH
hPa
Press
MSL
hPa
Rain
since 9 am
mm
Dir
 
Spd
km/h
Gust
km/h
Spd
kts
Gust
kts
28/11:30pm 12.4 7.1 11.1 92 0.7 NW 30 46 16 25 1010.6 - 0.0
28/11:00pm 12.5 7.4 10.6 88 1.0 NW 28 43 15 23 1010.9 - 0.0
28/10:30pm 12.1 7.7 10.3 89 0.9 NNW 24 44 13 24 1011.2 - 0.0
28/10:00pm 12.0 7.1 10.1 88 1.0 NNW 26 41 14 22 1011.3 - 0.0

Other Formats:

Comma delimited format used in spreadsheet applications
http://www.bom.gov.au/fwo/IDV60801/IDV60801.95825.axf

JavaScript Object Notation format (JSON) in row-major order
http://www.bom.gov.au/fwo/IDV60801/IDV60801.95825.json